Time;durP1;ratioP1;P1;durP2;ratioP2;P2;SDS_P1;SDS_P2;PMS_P1;PMS_P2;Temp;Humidity;BMP_temperature;BMP_pressure;BME280_temperature;BME280_humidity;BME280_pressure;Samples;Min_cycle;Max_cycle;Signal;HPM_P1;HPM_P2
2023/10/26 00:01:59;;;;;;;27.90;25.50;;;;;;;7.32;100.00;96171.02;107197;1284;23891;-88
2023/10/26 00:04:27;;;;;;;24.00;22.00;;;;;;;7.33;100.00;96175.66;107150;1284;22532;-88
2023/10/26 00:06:55;;;;;;;26.10;23.80;;;;;;;7.29;100.00;96183.13;107824;1284;22815;-89
2023/10/26 00:09:24;;;;;;;20.60;18.60;;;;;;;7.23;100.00;96180.79;108015;1284;22498;-89
2023/10/26 00:11:55;;;;;;;43.10;39.60;;;;;;;7.19;100.00;96180.89;107842;1284;23240;-87
2023/10/26 00:14:23;;;;;;;42.10;38.80;;;;;;;7.14;100.00;96178.84;108232;1284;24218;-88
2023/10/26 00:16:51;;;;;;;26.80;24.20;;;;;;;7.05;100.00;96179.15;108813;1283;22504;-88
2023/10/26 00:19:20;;;;;;;29.10;26.50;;;;;;;6.90;100.00;96175.39;107023;1283;22549;-89
2023/10/26 00:21:48;;;;;;;24.60;22.40;;;;;;;6.79;100.00;96170.79;106675;1276;22640;-87
2023/10/26 00:24:16;;;;;;;23.90;21.90;;;;;;;6.73;100.00;96170.89;106479;1284;22549;-88
2023/10/26 00:26:44;;;;;;;22.60;20.60;;;;;;;6.69;100.00;96171.70;106597;1279;26631;-87
2023/10/26 00:29:12;;;;;;;25.70;23.50;;;;;;;6.65;100.00;96169.98;106605;1284;23963;-87
2023/10/26 00:31:40;;;;;;;26.60;24.20;;;;;;;6.62;100.00;96169.20;106640;1271;22550;-87
2023/10/26 00:34:08;;;;;;;25.90;23.70;;;;;;;6.64;100.00;96168.60;106797;1283;22534;-87
2023/10/26 00:36:36;;;;;;;26.10;23.90;;;;;;;6.60;100.00;96166.33;106618;1270;24397;-87
2023/10/26 00:39:07;;;;;;;21.40;19.50;;;;;;;6.54;100.00;96168.64;106527;1284;25366;-87
2023/10/26 00:41:37;;;;;;;23.20;21.20;;;;;;;6.54;100.00;96166.09;106646;1273;22599;-87
2023/10/26 00:44:06;;;;;;;38.00;34.50;;;;;;;6.50;100.00;96165.23;106680;1284;22548;-87
2023/10/26 00:46:37;;;;;;;37.30;33.90;;;;;;;6.44;100.00;96166.33;106638;1284;23793;-88
2023/10/26 00:49:15;;;;;;;31.70;29.00;;;;;;;6.32;100.00;96156.19;106511;1281;22635;-87
2023/10/26 00:51:46;;;;;;;33.40;30.70;;;;;;;6.33;100.00;96155.59;106722;1284;25415;-88
2023/10/26 00:54:16;;;;;;;46.50;42.70;;;;;;;6.36;100.00;96151.22;106575;1269;25522;-87
2023/10/26 00:56:45;;;;;;;49.30;45.20;;;;;;;6.37;100.00;96150.30;106713;1284;22547;-87
2023/10/26 00:59:15;;;;;;;45.60;41.50;;;;;;;6.40;100.00;96150.46;106684;1277;25247;-86
2023/10/26 01:01:50;;;;;;;41.20;37.80;;;;;;;6.37;100.00;96150.21;106680;1284;22636;-86
2023/10/26 01:04:18;;;;;;;46.40;42.70;;;;;;;6.29;100.00;96137.25;106577;1284;22733;-87
2023/10/26 01:06:46;;;;;;;32.00;29.30;;;;;;;6.33;100.00;96148.29;106610;1277;22662;-88
2023/10/26 01:09:14;;;;;;;47.20;43.40;;;;;;;6.28;100.00;96152.25;109402;1284;22317;-87
2023/10/26 01:11:43;;;;;;;41.80;38.40;;;;;;;6.26;100.00;96151.17;107507;1284;22540;-88
2023/10/26 01:14:12;;;;;;;33.90;31.10;;;;;;;6.29;100.00;96150.08;106700;1284;22591;-87
2023/10/26 01:16:40;;;;;;;32.40;29.70;;;;;;;6.31;100.00;96148.64;106616;1268;24261;-88
2023/10/26 01:19:09;;;;;;;29.00;26.30;;;;;;;6.23;100.00;96135.73;106715;1281;24206;-87
2023/10/26 01:21:53;;;;;;;23.40;21.30;;;;;;;6.29;100.00;96144.95;106759;1284;22536;-86
2023/10/26 01:24:26;;;;;;;22.70;20.70;;;;;;;6.27;100.00;96134.95;106553;1280;22590;-86
2023/10/26 01:26:54;;;;;;;21.20;19.50;;;;;;;6.33;100.00;96132.27;106552;1285;22557;-86
2023/10/26 01:29:22;;;;;;;27.20;24.60;;;;;;;6.44;100.00;96126.42;106602;1274;22667;-86
2023/10/26 01:31:51;;;;;;;15.60;14.10;;;;;;;6.56;100.00;96125.21;106601;1284;22641;-86
2023/10/26 01:34:19;;;;;;;37.80;35.00;;;;;;;6.69;100.00;96115.14;106563;1277;25381;-87
2023/10/26 01:36:47;;;;;;;33.40;30.70;;;;;;;6.81;100.00;96110.89;106686;1284;24273;-88
2023/10/26 01:39:16;;;;;;;22.90;21.00;;;;;;;6.94;100.00;96108.54;106543;1284;22822;-87
2023/10/26 01:41:46;;;;;;;18.60;16.60;;;;;;;7.09;100.00;96112.45;106709;1277;22593;-85
2023/10/26 01:44:14;;;;;;;13.30;12.00;;;;;;;7.23;100.00;96113.09;106604;1284;23434;-86
2023/10/26 01:46:42;;;;;;;13.50;12.10;;;;;;;7.38;100.00;96113.60;106610;1285;24255;-87
2023/10/26 01:49:10;;;;;;;15.60;14.20;;;;;;;7.52;100.00;96113.26;106649;1285;24250;-87
2023/10/26 01:51:40;;;;;;;20.00;18.40;;;;;;;7.66;100.00;96108.97;106598;1282;22548;-86
2023/10/26 01:54:58;;;;;;;16.20;14.60;;;;;;;7.78;100.00;96107.45;106450;1284;22547;-86
2023/10/26 01:57:27;;;;;;;15.30;13.80;;;;;;;7.84;100.00;96110.02;106483;1278;25429;-87
2023/10/26 01:59:55;;;;;;;16.10;14.70;;;;;;;7.88;100.00;96107.15;106535;1284;23432;-86
2023/10/26 02:02:49;;;;;;;16.70;15.10;;;;;;;7.84;100.00;96103.55;106517;1284;22711;-85
2023/10/26 02:05:18;;;;;;;17.60;15.90;;;;;;;7.75;100.00;96095.80;106390;1286;22969;-86
2023/10/26 02:07:46;;;;;;;17.70;15.90;;;;;;;7.76;100.00;96095.59;106389;1283;25354;-86
2023/10/26 02:10:14;;;;;;;15.50;13.90;;;;;;;7.70;100.00;96092.86;106627;1284;22658;-86
2023/10/26 02:12:42;;;;;;;14.90;13.60;;;;;;;7.69;100.00;96082.30;106773;1280;22575;-86
2023/10/26 02:15:27;;;;;;;15.30;14.00;;;;;;;7.71;100.00;96078.41;106446;1274;25433;-86
2023/10/26 02:17:55;;;;;;;;;;;;;;;7.81;100.00;96068.30;106531;1285;25398;-86
2023/10/26 02:20:23;;;;;;;13.50;10.90;;;;;;;7.90;100.00;96062.20;106552;1278;22935;-86
2023/10/26 02:22:51;;;;;;;14.30;12.20;;;;;;;7.99;100.00;96059.30;106569;1282;22727;-86
2023/10/26 02:25:22;;;;;;;12.50;11.30;;;;;;;8.05;100.00;96051.63;106463;1274;22592;-86
2023/10/26 02:27:50;;;;;;;12.50;11.40;;;;;;;8.13;100.00;96046.73;106523;1271;25428;-86
2023/10/26 02:30:18;;;;;;;11.60;10.60;;;;;;;8.22;100.00;96040.05;106481;1283;22590;-86
2023/10/26 02:32:46;;;;;;;11.90;10.70;;;;;;;8.30;100.00;96041.43;106566;1275;24252;-87
2023/10/26 02:35:15;;;;;;;11.00;9.90;;;;;;;8.37;100.00;96040.27;106500;1277;22580;-86
2023/10/26 02:37:43;;;;;;;10.60;9.60;;;;;;;8.44;100.00;96037.42;106492;1285;24398;-86
2023/10/26 02:40:11;;;;;;;11.60;9.60;;;;;;;8.52;100.00;96040.75;106326;1283;25356;-86
2023/10/26 02:42:39;;;;;;;10.70;9.70;;;;;;;8.57;100.00;96034.13;106476;1277;25327;-87
2023/10/26 02:45:08;;;;;;;11.90;10.90;;;;;;;8.60;100.00;96022.34;106775;1286;24220;-86
2023/10/26 02:47:40;;;;;;;15.10;13.60;;;;;;;8.61;100.00;96005.48;106841;1284;24313;-86
2023/10/26 02:50:08;;;;;;;10.90;8.80;;;;;;;8.59;100.00;95997.61;106554;1278;22538;-85
2023/10/26 02:52:37;;;;;;;14.30;12.20;;;;;;;8.64;100.00;95999.38;106565;1285;25415;-86
2023/10/26 02:55:07;;;;;;;11.10;10.00;;;;;;;8.69;100.00;96002.52;106437;1284;22530;-87
2023/10/26 03:02:05;;;;;;;10.00;8.90;;;;;;;8.73;100.00;96007.88;106607;1286;22619;-86
2023/10/26 03:04:34;;;;;;;9.70;8.80;;;;;;;8.71;100.00;96010.59;106605;1286;24405;-87
2023/10/26 03:07:03;;;;;;;11.50;10.40;;;;;;;8.71;100.00;96010.18;106566;1285;23911;-87
2023/10/26 03:09:31;;;;;;;10.00;9.10;;;;;;;8.70;100.00;96009.46;106452;1279;22577;-87
2023/10/26 03:11:59;;;;;;;13.30;12.00;;;;;;;8.66;100.00;96020.45;106591;1266;23860;-88
2023/10/26 03:14:28;;;;;;;15.70;14.30;;;;;;;8.56;100.00;96017.30;106594;1285;24090;-86
2023/10/26 03:16:56;;;;;;;17.20;15.50;;;;;;;8.45;100.00;96020.95;106634;1277;24271;-87
2023/10/26 03:19:24;;;;;;;18.10;16.40;;;;;;;8.36;100.00;96033.83;106596;1278;25480;-87
2023/10/26 03:21:52;;;;;;;16.80;15.30;;;;;;;8.31;100.00;96039.52;106466;1285;22556;-87
2023/10/26 03:24:21;;;;;;;16.40;14.90;;;;;;;8.28;100.00;96050.16;106616;1278;25502;-87
2023/10/26 03:26:49;;;;;;;16.90;15.20;;;;;;;8.25;100.00;96055.42;106541;1284;22534;-86
2023/10/26 03:29:17;;;;;;;18.60;16.70;;;;;;;8.23;100.00;96056.64;106534;1284;22804;-86
2023/10/26 03:31:45;;;;;;;19.00;17.30;;;;;;;8.22;100.00;96062.05;106505;1284;25295;-87
2023/10/26 03:34:13;;;;;;;17.30;15.80;;;;;;;8.19;100.00;96061.88;107664;1284;23904;-87
2023/10/26 03:36:41;;;;;;;28.10;25.50;;;;;;;8.16;100.00;96053.27;108080;1283;24298;-86
2023/10/26 03:39:09;;;;;;;37.00;33.70;;;;;;;8.17;100.00;96048.31;108294;1285;22585;-87
2023/10/26 03:41:38;;;;;;;22.60;20.50;;;;;;;8.18;100.00;96044.30;108529;1284;22541;-86
2023/10/26 03:44:07;;;;;;;20.00;18.10;;;;;;;8.18;100.00;96040.98;106434;1285;25247;-86
2023/10/26 03:46:35;;;;;;;21.60;19.40;;;;;;;8.14;100.00;96043.61;106631;1285;23436;-86
2023/10/26 03:49:03;;;;;;;24.60;22.40;;;;;;;8.10;100.00;96039.19;106468;1284;22816;-87
2023/10/26 03:51:30;;;;;;;19.60;17.70;;;;;;;8.07;100.00;96032.65;106536;1285;22577;-87
2023/10/26 03:53:59;;;;;;;16.70;15.00;;;;;;;8.09;100.00;96021.91;106496;1284;24377;-87
2023/10/26 03:56:27;;;;;;;15.20;13.80;;;;;;;8.14;100.00;96020.07;106552;1279;22634;-87
2023/10/26 03:58:55;;;;;;;14.40;13.10;;;;;;;8.21;100.00;96026.45;106504;1286;22537;-87
2023/10/26 04:01:23;;;;;;;13.50;12.10;;;;;;;8.28;100.00;96028.91;106531;1284;22758;-87
2023/10/26 04:03:51;;;;;;;16.80;15.40;;;;;;;8.33;100.00;96030.95;106495;1285;25292;-87
2023/10/26 04:06:19;;;;;;;13.50;12.10;;;;;;;8.36;100.00;96041.63;106527;1278;25600;-87
2023/10/26 04:08:48;;;;;;;12.80;11.60;;;;;;;8.37;100.00;96050.58;106585;1278;22641;-88
2023/10/26 04:11:17;;;;;;;13.80;12.40;;;;;;;8.39;100.00;96055.50;106459;1284;22560;-87
2023/10/26 04:13:45;;;;;;;13.20;12.00;;;;;;;8.44;100.00;96058.41;106492;1278;22544;-87
2023/10/26 04:16:13;;;;;;;15.40;13.80;;;;;;;8.50;100.00;96057.50;106534;1281;26644;-87
2023/10/26 04:18:41;;;;;;;15.20;13.80;;;;;;;8.57;100.00;96051.37;106503;1283;22775;-88
2023/10/26 04:21:09;;;;;;;13.30;12.10;;;;;;;8.62;100.00;96050.39;106549;1284;22786;-88
2023/10/26 04:23:37;;;;;;;17.70;16.00;;;;;;;8.66;100.00;96053.06;106569;1285;23011;-87
2023/10/26 04:26:06;;;;;;;18.20;16.40;;;;;;;8.68;100.00;96044.61;106464;1281;22667;-88
2023/10/26 04:28:36;;;;;;;17.00;15.40;;;;;;;8.68;100.00;96033.88;106444;1285;22539;-88
2023/10/26 04:31:20;;;;;;;1098.80;17.10;;;;;;;8.75;100.00;96030.95;106754;1280;22540;-87
2023/10/26 04:33:49;;;;;;;23.10;19.30;;;;;;;8.78;100.00;96024.94;106661;1277;24196;-87
2023/10/26 04:36:19;;;;;;;23.90;21.20;;;;;;;8.80;100.00;96019.88;108529;1278;22624;-87
2023/10/26 04:38:47;;;;;;;20.90;18.50;;;;;;;8.78;100.00;96012.27;109751;1284;22203;-87
2023/10/26 04:41:15;;;;;;;22.60;20.40;;;;;;;8.82;100.00;96020.92;106346;1284;22536;-88
2023/10/26 04:43:43;;;;;;;22.50;20.50;;;;;;;8.84;100.00;96020.91;106475;1278;22566;-88
2023/10/26 04:46:11;;;;;;;19.60;17.80;;;;;;;8.85;100.00;96020.95;106445;1284;22567;-86
2023/10/26 04:48:42;;;;;;;20.00;18.20;;;;;;;8.84;100.00;96027.52;106385;1284;22559;-88
2023/10/26 04:51:10;;;;;;;21.90;19.70;;;;;;;8.82;100.00;96027.59;106450;1285;23964;-88
2023/10/26 04:53:38;;;;;;;26.50;23.70;;;;;;;8.76;100.00;96030.30;106917;1278;24279;-84
2023/10/26 04:56:06;;;;;;;28.40;25.60;;;;;;;8.77;100.00;96046.38;106514;1270;22523;-84
2023/10/26 04:58:34;;;;;;;27.60;25.00;;;;;;;8.70;100.00;96061.26;106511;1281;24246;-85
2023/10/26 05:01:02;;;;;;;25.80;23.60;;;;;;;8.64;100.00;96068.41;106539;1284;24245;-85
2023/10/26 05:03:30;;;;;;;23.00;20.70;;;;;;;8.58;100.00;96061.79;106519;1284;23055;-84
2023/10/26 05:05:58;;;;;;;28.70;25.80;;;;;;;8.54;100.00;96051.42;106595;1284;25352;-86
2023/10/26 05:08:27;;;;;;;25.30;23.20;;;;;;;8.53;100.00;96045.19;106623;1271;24397;-86
2023/10/26 05:11:35;;;;;;;25.10;22.70;;;;;;;8.54;100.00;96045.13;106377;1280;26748;-88
2023/10/26 05:14:09;;;;;;;27.30;24.70;;;;;;;8.52;100.00;96031.34;106618;1278;25398;-89
2023/10/26 05:16:38;;;;;;;27.00;24.60;;;;;;;8.52;100.00;96031.09;106538;1283;22793;-92
2023/10/26 05:19:06;;;;;;;25.70;23.30;;;;;;;8.48;100.00;96026.89;108048;1280;22637;-86
2023/10/26 05:21:35;;;;;;;27.90;25.60;;;;;;;8.46;100.00;96018.39;107742;1284;22576;-85
2023/10/26 05:24:04;;;;;;;24.30;21.90;;;;;;;8.54;100.00;96023.90;106570;1278;22534;-89
2023/10/26 05:26:32;;;;;;;23.20;20.90;;;;;;;8.59;100.00;96022.39;106606;1283;22547;-87
2023/10/26 05:29:03;;;;;;;20.30;18.40;;;;;;;8.66;100.00;96017.99;106610;1277;25966;-88
2023/10/26 05:31:31;;;;;;;17.30;15.60;;;;;;;8.72;100.00;96017.12;106657;1284;24248;-87
2023/10/26 05:33:59;;;;;;;18.20;16.40;;;;;;;8.77;100.00;96008.16;106705;1271;22540;-88
2023/10/26 05:36:28;;;;;;;15.40;14.10;;;;;;;8.82;100.00;96005.58;107055;1271;22574;-91
2023/10/26 05:39:00;;;;;;;14.40;13.00;;;;;;;8.84;100.00;95992.84;106952;1284;24238;-86
2023/10/26 05:41:29;;;;;;;12.60;11.40;;;;;;;8.90;100.00;95987.19;106645;1280;22535;-84
2023/10/26 05:43:57;;;;;;;15.20;13.80;;;;;;;8.98;100.00;95985.83;106660;1284;24520;-85
2023/10/26 05:46:25;;;;;;;10.90;9.30;;;;;;;9.05;100.00;96006.40;106483;1284;24054;-88
2023/10/26 05:48:54;;;;;;;13.00;11.80;;;;;;;9.10;100.00;96012.70;106710;1279;22835;-87
2023/10/26 05:51:22;;;;;;;13.50;10.60;;;;;;;9.14;100.00;96007.46;106498;1278;24943;-86
2023/10/26 05:53:50;;;;;;;10.30;9.10;;;;;;;9.20;100.00;95997.12;106467;1285;25384;-87
2023/10/26 05:56:18;;;;;;;11.30;10.10;;;;;;;9.22;100.00;95994.59;106506;1275;22538;-85
2023/10/26 05:58:50;;;;;;;15.50;10.70;;;;;;;9.26;100.00;95997.61;106787;1282;25429;-86
2023/10/26 06:01:18;;;;;;;11.30;9.70;;;;;;;9.29;100.00;95996.87;106756;1284;25498;-86
2023/10/26 06:03:46;;;;;;;12.30;10.00;;;;;;;9.32;100.00;95982.02;107018;1278;26622;-85
2023/10/26 06:06:15;;;;;;;12.20;11.00;;;;;;;9.37;100.00;95980.21;106742;1285;22516;-87
2023/10/26 06:08:43;;;;;;;15.70;14.10;;;;;;;9.38;100.00;95987.91;106969;1286;25728;-87
2023/10/26 06:11:12;;;;;;;15.60;14.00;;;;;;;9.40;100.00;95987.23;107204;1271;25402;-87
2023/10/26 06:13:40;;;;;;;14.30;12.90;;;;;;;9.45;100.00;95999.39;106922;1284;24351;-87
2023/10/26 06:16:15;;;;;;;12.90;11.70;;;;;;;9.50;100.00;95996.68;106729;1285;22631;-86
2023/10/26 06:18:43;;;;;;;14.80;13.40;;;;;;;9.56;100.00;96001.61;106743;1284;22540;-86
2023/10/26 06:21:13;;;;;;;14.10;12.30;;;;;;;9.58;100.00;96000.35;106591;1284;22568;-85
2023/10/26 06:23:42;;;;;;;14.50;13.20;;;;;;;9.58;100.00;95996.73;106645;1279;25311;-86
2023/10/26 06:26:10;;;;;;;15.60;14.10;;;;;;;9.60;100.00;95998.95;106700;1284;22548;-86
2023/10/26 06:28:38;;;;;;;14.70;13.30;;;;;;;9.60;100.00;96002.17;106595;1281;22491;-86
2023/10/26 06:31:10;;;;;;;13.60;12.30;;;;;;;9.60;100.00;95997.05;106586;1284;23606;-86
2023/10/26 06:33:38;;;;;;;15.70;13.10;;;;;;;9.59;100.00;96001.30;106770;1284;22556;-87
2023/10/26 06:36:08;;;;;;;14.20;12.80;;;;;;;9.58;100.00;96001.98;106539;1281;23149;-87
2023/10/26 06:38:38;;;;;;;14.90;13.30;;;;;;;9.57;100.00;96000.34;106625;1277;24214;-87
2023/10/26 06:41:09;;;;;;;15.10;13.60;;;;;;;9.57;100.00;96001.88;106511;1283;24408;-85
2023/10/26 06:43:38;;;;;;;17.10;14.70;;;;;;;9.59;100.00;95999.09;106569;1281;22544;-86
2023/10/26 06:46:07;;;;;;;16.20;14.50;;;;;;;9.64;100.00;95994.31;106593;1284;23915;-85
2023/10/26 06:48:35;;;;;;;16.50;14.80;;;;;;;9.67;100.00;95990.19;106466;1284;24063;-85
2023/10/26 06:51:04;;;;;;;16.70;15.20;;;;;;;9.67;100.00;95984.66;106675;1269;22708;-86
2023/10/26 06:53:33;;;;;;;15.90;14.40;;;;;;;9.70;100.00;95986.05;106595;1284;24375;-86
2023/10/26 06:56:01;;;;;;;14.10;12.70;;;;;;;9.71;100.00;95981.64;106509;1278;24000;-85
2023/10/26 06:58:29;;;;;;;14.30;12.70;;;;;;;9.73;100.00;95985.16;106520;1270;25263;-85
2023/10/26 07:01:05;;;;;;;14.50;12.90;;;;;;;9.74;100.00;95984.73;106612;1284;24197;-85
2023/10/26 07:03:50;;;;;;;12.70;11.10;;;;;;;9.76;100.00;95980.39;106567;1284;24069;-86
2023/10/26 07:06:19;;;;;;;11.40;8.30;;;;;;;9.80;100.00;95976.96;106544;1281;24214;-86
2023/10/26 07:08:47;;;;;;;11.50;10.40;;;;;;;9.82;100.00;95976.09;106636;1281;22667;-86
2023/10/26 07:11:23;;;;;;;16.70;14.10;;;;;;;9.84;100.00;95985.60;106545;1284;23481;-86
2023/10/26 07:13:51;;;;;;;14.40;12.90;;;;;;;9.83;100.00;95992.35;107169;1284;24606;-88
2023/10/26 07:16:19;;;;;;;18.50;14.00;;;;;;;9.83;100.00;95988.88;107003;1283;22541;-86
2023/10/26 07:18:47;;;;;;;14.50;12.80;;;;;;;9.87;100.00;95977.70;107778;1281;23856;-86
2023/10/26 07:21:15;;;;;;;16.30;13.10;;;;;;;9.91;100.00;95980.52;107923;1281;25421;-85
2023/10/26 07:23:45;;;;;;;16.70;13.10;;;;;;;9.96;100.00;95988.13;106540;1284;24248;-86
2023/10/26 07:26:17;;;;;;;15.80;14.10;;;;;;;10.02;100.00;95989.27;106624;1284;22547;-86
2023/10/26 07:28:46;;;;;;;14.60;13.10;;;;;;;10.06;100.00;95985.38;106604;1284;22564;-86
2023/10/26 07:31:20;;;;;;;17.00;12.70;;;;;;;10.08;100.00;95973.91;106618;1284;24395;-86
2023/10/26 07:33:49;;;;;;;14.60;12.60;;;;;;;10.16;100.00;95969.44;106595;1284;22540;-86
2023/10/26 07:36:17;;;;;;;15.40;13.80;;;;;;;10.21;100.00;95965.96;106552;1283;25329;-86
2023/10/26 07:38:46;;;;;;;17.40;14.00;;;;;;;10.26;100.00;95970.10;106525;1284;23230;-87
2023/10/26 07:41:33;;;;;;;16.20;12.90;;;;;;;10.31;100.00;95970.73;106556;1278;22874;-87
2023/10/26 07:44:21;;;;;;;15.80;11.40;;;;;;;10.35;100.00;95968.16;106411;1284;24394;-86
2023/10/26 07:46:50;;;;;;;14.50;11.80;;;;;;;10.38;100.00;95966.46;106418;1284;27907;-87
2023/10/26 07:49:18;;;;;;;13.90;11.90;;;;;;;10.41;100.00;95967.09;106355;1284;22543;-86
2023/10/26 07:51:46;;;;;;;12.50;11.20;;;;;;;10.49;100.00;95974.02;106414;1284;22769;-85
2023/10/26 07:54:15;;;;;;;12.20;10.50;;;;;;;10.55;100.00;95975.20;106426;1284;24239;-87
2023/10/26 07:56:43;;;;;;;13.60;11.70;;;;;;;10.61;100.00;95976.14;106422;1261;25502;-86
2023/10/26 07:59:14;;;;;;;15.20;13.70;;;;;;;10.69;100.00;95972.57;106500;1270;22664;-86
2023/10/26 08:01:42;;;;;;;11.70;8.70;;;;;;;10.77;100.00;95975.52;106464;1272;23916;-85
2023/10/26 08:04:10;;;;;;;12.50;8.40;;;;;;;10.81;100.00;95972.47;106450;1284;22582;-86
2023/10/26 08:06:38;;;;;;;11.20;7.80;;;;;;;10.84;100.00;95979.02;106468;1284;22722;-86
2023/10/26 08:09:06;;;;;;;9.60;7.40;;;;;;;10.88;100.00;95981.13;106509;1281;22615;-86
2023/10/26 08:11:34;;;;;;;8.70;7.10;;;;;;;10.95;100.00;95981.60;106453;1284;22544;-85
2023/10/26 08:14:02;;;;;;;9.50;8.40;;;;;;;11.03;100.00;95983.73;106506;1284;23896;-86
2023/10/26 08:16:50;;;;;;;9.30;8.20;;;;;;;11.07;100.00;95980.06;106447;1284;22628;-86
2023/10/26 08:19:19;;;;;;;8.00;6.40;;;;;;;11.10;100.00;95976.88;106429;1284;25463;-86
2023/10/26 08:21:48;;;;;;;7.70;6.50;;;;;;;11.10;100.00;95977.49;106475;1269;22608;-86
2023/10/26 08:24:16;;;;;;;37.10;33.70;;;;;;;11.11;100.00;95979.60;106454;1284;22620;-86
2023/10/26 08:26:44;;;;;;;35.40;32.10;;;;;;;11.14;100.00;95980.91;106486;1283;24238;-88
2023/10/26 08:29:12;;;;;;;10.10;7.40;;;;;;;11.20;100.00;95970.64;106437;1284;25584;-86
2023/10/26 08:31:57;;;;;;;25.00;22.90;;;;;;;11.26;100.00;95968.79;106457;1284;22680;-85
2023/10/26 08:34:27;;;;;;;14.00;12.60;;;;;;;11.30;100.00;95970.50;106473;1284;25556;-86
2023/10/26 08:36:56;;;;;;;8.80;6.60;;;;;;;11.34;100.00;95975.36;106578;1274;25315;-87
2023/10/26 08:39:27;;;;;;;8.50;5.60;;;;;;;11.35;100.00;95975.06;106512;1281;22650;-85
2023/10/26 08:41:58;;;;;;;24.00;21.50;;;;;;;11.39;100.00;95976.92;106493;1280;23423;-86
2023/10/26 08:44:28;;;;;;;35.30;32.10;;;;;;;11.46;100.00;95979.10;106487;1284;22639;-86
2023/10/26 08:46:59;;;;;;;9.60;8.10;;;;;;;11.51;100.00;95986.99;106428;1276;25450;-86
2023/10/26 08:49:29;;;;;;;28.10;25.30;;;;;;;11.57;100.00;95986.52;106360;1277;24065;-86
2023/10/26 08:51:58;;;;;;;38.10;34.10;;;;;;;11.60;100.00;95984.48;106427;1284;25543;-86
2023/10/26 08:54:31;;;;;;;20.90;18.80;;;;;;;11.64;100.00;95986.13;106488;1269;22792;-86
2023/10/26 08:57:08;;;;;;;31.70;29.00;;;;;;;11.72;100.00;95990.63;106488;1281;26660;-87
2023/10/26 08:59:37;;;;;;;41.30;38.20;;;;;;;11.80;100.00;95992.03;106466;1284;22921;-86
2023/10/26 09:02:31;;;;;;;18.60;16.90;;;;;;;11.92;100.00;95990.52;106492;1284;24318;-87
2023/10/26 09:05:02;;;;;;;17.20;15.60;;;;;;;12.07;100.00;95993.38;106536;1284;23799;-87
2023/10/26 09:07:31;;;;;;;19.50;18.00;;;;;;;12.17;100.00;95991.28;106544;1271;22548;-86
2023/10/26 09:10:04;;;;;;;8.70;7.80;;;;;;;12.29;100.00;95994.05;106361;1284;22580;-87
2023/10/26 09:12:33;;;;;;;10.50;9.40;;;;;;;12.35;100.00;95990.86;106457;1281;22574;-87
2023/10/26 09:15:05;;;;;;;11.30;10.20;;;;;;;12.45;100.00;95994.14;106536;1284;22554;-87
2023/10/26 09:17:34;;;;;;;14.20;11.50;;;;;;;12.53;100.00;95995.14;106633;1274;24206;-87
2023/10/26 09:20:21;;;;;;;12.60;9.30;;;;;;;12.63;100.00;95997.40;106625;1284;24260;-87
2023/10/26 09:22:50;;;;;;;12.50;10.20;;;;;;;12.70;100.00;95995.38;106576;1281;22849;-86
2023/10/26 09:25:18;;;;;;;10.80;8.50;;;;;;;12.78;100.00;95989.55;106662;1277;24349;-86
2023/10/26 09:27:46;;;;;;;8.50;7.20;;;;;;;12.83;100.00;95986.41;106473;1284;22646;-86
2023/10/26 09:30:23;;;;;;;58.30;52.90;;;;;;;12.88;100.00;95988.74;106492;1284;23289;-87
2023/10/26 09:32:51;;;;;;;11.90;9.60;;;;;;;12.98;100.00;95988.29;106583;1284;23811;-88
2023/10/26 09:35:30;;;;;;;54.40;49.10;;;;;;;13.10;100.00;95991.20;106478;1284;25564;-87
2023/10/26 09:37:59;;;;;;;41.50;37.70;;;;;;;13.15;100.00;95993.52;106534;1284;22786;-85
2023/10/26 09:40:27;;;;;;;33.10;29.90;;;;;;;13.17;100.00;95996.10;106671;1284;22537;-86
2023/10/26 09:42:56;;;;;;;14.70;13.20;;;;;;;13.24;100.00;96001.22;106556;1278;24228;-86
2023/10/26 09:45:29;;;;;;;13.20;12.00;;;;;;;13.30;100.00;95993.71;106563;1284;25366;-86
2023/10/26 09:47:59;;;;;;;5.60;4.60;;;;;;;13.45;100.00;95993.39;106453;1284;181996;-86
2023/10/26 09:50:27;;;;;;;10.60;7.50;;;;;;;13.56;100.00;95995.33;106596;1284;22550;-85
2023/10/26 09:52:58;;;;;;;11.80;8.10;;;;;;;13.63;100.00;95990.80;106666;1279;24237;-85
2023/10/26 09:55:27;;;;;;;7.30;5.90;;;;;;;13.75;99.95;95989.65;106646;1281;22652;-85
2023/10/26 09:58:01;;;;;;;6.20;4.30;;;;;;;13.90;99.73;95987.30;106634;1283;22750;-85
2023/10/26 10:00:34;;;;;;;7.60;4.40;;;;;;;14.07;98.20;95988.60;106585;1284;24344;-85
2023/10/26 10:03:14;;;;;;;3.40;2.70;;;;;;;14.17;95.04;95981.06;106586;1273;22557;-86
2023/10/26 10:05:44;;;;;;;4.00;3.30;;;;;;;14.28;94.14;95980.34;106524;1276;22573;-86
2023/10/26 10:08:12;;;;;;;3.80;3.10;;;;;;;14.45;93.44;95973.27;106692;1279;22559;-86
2023/10/26 10:11:13;;;;;;;4.30;2.90;;;;;;;14.69;93.47;95971.76;106499;1284;22555;-85
2023/10/26 10:13:41;;;;;;;4.10;2.60;;;;;;;14.85;92.09;95970.60;106604;1283;24380;-85
2023/10/26 10:16:34;;;;;;;2.60;2.00;;;;;;;14.89;91.81;95963.91;106584;1283;24382;-86
2023/10/26 10:19:18;;;;;;;3.40;2.60;;;;;;;14.88;88.74;95965.44;106720;1283;25472;-87
2023/10/26 10:21:48;;;;;;;3.50;2.70;;;;;;;14.76;87.42;95960.30;106697;1278;22604;-87
2023/10/26 10:24:42;;;;;;;20.90;19.10;;;;;;;14.69;87.07;95960.84;106552;1284;24194;-86
2023/10/26 10:27:15;;;;;;;8.70;7.20;;;;;;;14.64;86.34;95971.10;106586;1284;24762;-87
2023/10/26 10:29:44;;;;;;;18.40;16.30;;;;;;;14.65;88.25;95963.98;106574;1284;22548;-88
2023/10/26 10:32:47;;;;;;;9.50;7.10;;;;;;;14.84;89.54;95961.30;106272;1284;22547;-87
2023/10/26 10:35:21;;;;;;;8.00;7.20;;;;;;;15.08;88.44;95960.66;106595;1284;24214;-86
2023/10/26 10:38:13;;;;;;;5.00;3.10;;;;;;;15.19;86.39;95970.11;106628;1277;22662;-86
2023/10/26 10:41:05;;;;;;;4.00;3.10;;;;;;;15.11;86.46;95961.76;106631;1284;22551;-86
2023/10/26 10:43:46;;;;;;;4.40;3.50;;;;;;;14.97;85.12;95963.50;107190;1284;22569;-84
2023/10/26 10:46:23;;;;;;;5.60;4.50;;;;;;;14.76;86.05;95956.27;109627;1282;22869;-84
2023/10/26 10:48:56;;;;;;;7.30;5.30;;;;;;;14.63;86.38;95961.10;109136;1284;22576;-85
2023/10/26 10:55:50;;;;;;;8.00;3.70;;;;;;;14.29;85.68;95955.67;106794;1285;22596;-87
2023/10/26 10:58:18;;;;;;;7.10;4.10;;;;;;;14.28;86.33;95954.58;107149;1270;24219;-86
2023/10/26 11:00:48;;;;;;;6.40;4.30;;;;;;;14.36;85.87;95958.52;106455;1276;24298;-86
2023/10/26 11:03:22;;;;;;;5.30;3.60;;;;;;;14.38;84.71;95964.05;106591;1284;24247;-86
2023/10/26 11:05:52;;;;;;;5.30;4.00;;;;;;;14.32;85.06;95965.30;106480;1283;24174;-86
2023/10/26 11:08:20;;;;;;;5.90;3.90;;;;;;;14.34;85.33;95958.83;106521;1284;22721;-87
2023/10/26 11:10:48;;;;;;;6.50;4.30;;;;;;;14.41;84.44;95960.99;106549;1265;24201;-87
2023/10/26 11:13:23;;;;;;;4.20;2.50;;;;;;;14.46;85.51;95954.55;106492;1284;23905;-87
2023/10/26 11:15:51;;;;;;;4.40;2.60;;;;;;;14.54;85.06;95960.92;106601;1270;22541;-87
2023/10/26 11:18:19;;;;;;;4.80;3.50;;;;;;;14.52;83.97;95959.34;106568;1284;25436;-87
2023/10/26 11:20:47;;;;;;;8.70;4.10;;;;;;;14.41;83.23;95960.60;106545;1283;25353;-86
2023/10/26 11:23:19;;;;;;;4.80;3.10;;;;;;;14.26;83.15;95958.28;106476;1285;22556;-87
2023/10/26 11:25:47;;;;;;;5.30;3.60;;;;;;;14.14;82.99;95957.58;106584;1270;22795;-86
2023/10/26 11:28:15;;;;;;;6.90;3.60;;;;;;;14.04;83.58;95963.74;106490;1285;22544;-86
2023/10/26 11:30:51;;;;;;;5.00;3.30;;;;;;;13.99;83.60;95969.70;106499;1283;22561;-86
2023/10/26 11:33:30;;;;;;;4.40;3.00;;;;;;;13.93;83.60;95973.80;106495;1280;22630;-86
2023/10/26 11:35:59;;;;;;;7.40;4.00;;;;;;;13.90;84.58;95975.61;106537;1285;24513;-86
2023/10/26 11:38:27;;;;;;;5.10;4.40;;;;;;;13.86;84.42;95970.15;106474;1285;22666;-86